IVAO ES Tour IFR-A 2013 Etapa 3

IVAO ES Tour IFR-A 2013 Etapa 3

Fuerteventura ( GCFV ) – La Palma ( GCLA )

Datos generales del vuelo
 Fecha 19-11-2013  Avión  B737-800 winglets
 Ruta ARACO  Nivel de vuelo FL220
 Origen GCFV  Destino GCLA
 Velocidad 300Knots  Distancia 204Nm
 Distancia real  204Nm ETE 00:45
 ETA 10:45  FOB 02:00
 Hora salida 09:45Z Hora llegada 10:45Z
 Pax 7 TOW 56930Kg
 MTOW  78471Kg Fuel 5953Kg
 Fuel utilizado 2678Kg ZFW 50976Kg
Peso carga  9072Kg Peso pasaje 491Kg
V1 117Knots Vr 127Knots
 V2 139Knots  Vref 136Knots

 

Datos GCFV

Metar: GCFV 200900Z 35009KT 310V010 9999 FEW025 19/13 Q1020
Salida: ARACO4Q

Datos GCLA

Metar: GCLA 201000Z 05009KT 350V080 9999 FEW027 BKN040 20/15 Q1022 RERA
Llegada: n/a
App: NDB01 transición ARACO

 

 

 

Deja un comentario

Tu dirección de correo electrónico no será publicada. Los campos obligatorios están marcados con *